Time,TemperatureF,DewpointF,PressureIn,WindDirection,WindDirectionDegrees,WindSpeedMPH,WindSpeedGustMPH,Humidity,HourlyPrecipIn,Conditions,Clouds,dailyrainin,SoftwareType,DateUTC
2013-04-06 10:32:00,53.0,46.0,-100.00,NW,317,5.0,7.0,77,-99.99,,,-99.99,,2013-04-06 17:32:00,
2013-04-06 10:42:00,53.0,46.0,-100.00,West,280,4.0,6.0,76,-99.99,,,-99.99,,2013-04-06 17:42:00,
2013-04-06 10:52:00,53.0,45.0,-100.00,West,271,5.0,9.0,75,-99.99,,,-99.99,,2013-04-06 17:52:00,
2013-04-06 11:02:00,53.0,45.0,-100.00,West,271,5.0,9.0,75,-99.99,,,-99.99,,2013-04-06 18:02:00,
2013-04-06 11:12:00,55.0,46.0,-100.00,NW,308,8.0,12.0,71,-99.99,,,-99.99,,2013-04-06 18:12:00,
2013-04-06 11:22:00,55.0,45.0,-100.00,NW,317,5.0,10.0,70,-99.99,,,-99.99,,2013-04-06 18:22:00,
2013-04-06 11:32:00,56.0,46.0,-100.00,West,276,5.0,9.0,68,-99.99,,,-99.99,,2013-04-06 18:32:00,
2013-04-06 11:42:00,56.0,46.0,-100.00,WNW,290,7.0,11.0,68,-99.99,,,-99.99,,2013-04-06 18:42:00,
2013-04-06 11:52:00,58.0,47.0,-100.00,NW,307,7.0,10.0,66,-99.99,,,-99.99,,2013-04-06 18:52:00,
2013-04-06 12:02:00,57.0,45.0,-100.00,NW,304,9.0,13.0,65,-99.99,,,-99.99,,2013-04-06 19:02:00,
2013-04-06 12:12:00,58.0,46.0,-100.00,NW,313,10.0,16.0,65,-99.99,,,-99.99,,2013-04-06 19:12:00,
2013-04-06 12:22:00,58.0,46.0,-100.00,NW,307,9.0,14.0,64,-99.99,,,-99.99,,2013-04-06 19:22:00,
2013-04-06 12:32:00,58.0,46.0,-100.00,WNW,291,10.0,14.0,65,-99.99,,,-99.99,,2013-04-06 19:32:00,
2013-04-06 12:42:00,58.0,45.0,-100.00,NW,305,9.0,13.0,63,-99.99,,,-99.99,,2013-04-06 19:42:00,
2013-04-06 12:52:00,58.0,45.0,-100.00,WNW,297,11.0,15.0,63,-99.99,,,-99.99,,2013-04-06 19:52:00,
2013-04-06 13:02:00,58.0,45.0,-100.00,WNW,300,9.0,15.0,63,-99.99,,,-99.99,,2013-04-06 20:02:00,
2013-04-06 13:12:00,59.0,46.0,-100.00,WNW,301,6.0,12.0,62,-99.99,,,-99.99,,2013-04-06 20:12:00,
2013-04-06 13:22:00,60.0,46.0,-100.00,WNW,300,8.0,12.0,60,-99.99,,,-99.99,,2013-04-06 20:22:00,
2013-04-06 13:32:00,60.0,46.0,-100.00,NW,304,8.0,16.0,60,-99.99,,,-99.99,,2013-04-06 20:32:00,
2013-04-06 13:42:00,61.0,47.0,-100.00,WNW,291,9.0,14.0,59,-99.99,,,-99.99,,2013-04-06 20:42:00,
2013-04-06 13:52:00,60.0,46.0,-100.00,WNW,303,9.0,15.0,59,-99.99,,,-99.99,,2013-04-06 20:52:00,
2013-04-06 14:02:00,60.0,46.0,-100.00,NW,305,12.0,17.0,60,-99.99,,,-99.99,,2013-04-06 21:02:00,
2013-04-06 14:12:00,61.0,47.0,-100.00,NW,307,10.0,15.0,59,-99.99,,,-99.99,,2013-04-06 21:12:00,
2013-04-06 14:22:00,61.0,47.0,-100.00,NW,307,10.0,15.0,59,-99.99,,,-99.99,,2013-04-06 21:22:00,
2013-04-06 14:33:00,62.0,46.0,-100.00,WNW,303,10.0,17.0,55,-99.99,,,-99.99,,2013-04-06 21:33:00,
2013-04-06 14:43:00,61.0,46.0,-100.00,WNW,303,11.0,17.0,57,-99.99,,,-99.99,,2013-04-06 21:43:00,
2013-04-06 14:52:00,61.0,45.0,-100.00,WNW,301,10.0,16.0,56,-99.99,,,-99.99,,2013-04-06 21:52:00,
2013-04-06 15:02:00,61.0,45.0,-100.00,WNW,302,9.0,15.0,56,-99.99,,,-99.99,,2013-04-06 22:02:00,
2013-04-06 15:12:00,62.0,46.0,-100.00,WNW,303,10.0,15.0,55,-99.99,,,-99.99,,2013-04-06 22:12:00,
2013-04-06 15:22:00,62.0,46.0,-100.00,WNW,297,12.0,17.0,56,-99.99,,,-99.99,,2013-04-06 22:22:00,
2013-04-06 15:33:00,62.0,47.0,-100.00,NW,306,12.0,18.0,57,-99.99,,,-99.99,,2013-04-06 22:33:00,
2013-04-06 15:42:00,62.0,47.0,-100.00,WNW,293,11.0,20.0,58,-99.99,,,-99.99,,2013-04-06 22:42:00,
2013-04-06 15:53:00,62.0,48.0,-100.00,WNW,298,11.0,18.0,60,-99.99,,,-99.99,,2013-04-06 22:53:00,
2013-04-06 16:02:00,62.0,48.0,-100.00,WNW,287,11.0,15.0,60,-99.99,,,-99.99,,2013-04-06 23:02:00,
2013-04-06 16:13:00,61.0,48.0,-100.00,WNW,295,12.0,17.0,62,-99.99,,,-99.99,,2013-04-06 23:13:00,
2013-04-06 16:22:00,61.0,49.0,-100.00,WNW,298,12.0,17.0,64,-99.99,,,-99.99,,2013-04-06 23:22:00,
2013-04-06 16:33:00,60.0,48.0,-100.00,WNW,299,11.0,15.0,65,-99.99,,,-99.99,,2013-04-06 23:33:00,
2013-04-06 16:42:00,60.0,49.0,-100.00,WNW,297,10.0,14.0,66,-99.99,,,-99.99,,2013-04-06 23:42:00,
2013-04-06 16:52:00,60.0,49.0,-100.00,WNW,302,8.0,14.0,67,-99.99,,,-99.99,,2013-04-06 23:52:00,
2013-04-06 17:02:00,60.0,49.0,-100.00,WNW,300,8.0,14.0,66,-99.99,,,-99.99,,2013-04-07 00:02:00,
2013-04-06 17:12:00,60.0,49.0,-100.00,NW,304,8.0,14.0,66,-99.99,,,-99.99,,2013-04-07 00:12:00,
2013-04-06 17:22:00,60.0,49.0,-100.00,WNW,302,7.0,11.0,66,-99.99,,,-99.99,,2013-04-07 00:22:00,
2013-04-06 17:32:00,60.0,49.0,-100.00,WNW,299,8.0,12.0,67,-99.99,,,-99.99,,2013-04-07 00:32:00,
2013-04-06 17:52:00,60.0,49.0,-100.00,WNW,299,9.0,13.0,68,-99.99,,,-99.99,,2013-04-07 00:52:00,
2013-04-06 18:02:00,58.0,48.0,-100.00,WNW,302,10.0,14.0,70,-99.99,,,-99.99,,2013-04-07 01:02:00,
2013-04-06 18:12:00,58.0,49.0,-100.00,NW,305,10.0,14.0,71,-99.99,,,-99.99,,2013-04-07 01:12:00,
2013-04-06 18:22:00,58.0,49.0,-100.00,WNW,300,10.0,13.0,72,-99.99,,,-99.99,,2013-04-07 01:22:00,
2013-04-06 18:32:00,57.0,48.0,-100.00,NW,307,10.0,15.0,73,-99.99,,,-99.99,,2013-04-07 01:32:00,
2013-04-06 18:42:00,57.0,49.0,-100.00,NW,304,10.0,14.0,74,-99.99,,,-99.99,,2013-04-07 01:42:00,
2013-04-06 18:52:00,56.0,49.0,-100.00,WNW,301,10.0,12.0,77,-99.99,,,-99.99,,2013-04-07 01:52:00,
2013-04-06 19:02:00,55.0,49.0,-100.00,WNW,293,9.0,13.0,79,-99.99,,,-99.99,,2013-04-07 02:02:00,
2013-04-06 19:12:00,55.0,49.0,-100.00,WNW,301,9.0,12.0,81,-99.99,,,-99.99,,2013-04-07 02:12:00,
2013-04-06 19:22:00,54.0,49.0,-100.00,NW,304,7.0,9.0,82,-99.99,,,-99.99,,2013-04-07 02:22:00,
2013-04-06 19:32:00,53.0,48.0,-100.00,NW,310,7.0,9.0,84,-99.99,,,-99.99,,2013-04-07 02:32:00,
2013-04-06 19:42:00,53.0,49.0,-100.00,NW,311,6.0,7.0,87,-99.99,,,-99.99,,2013-04-07 02:42:00,
2013-04-06 19:52:00,52.0,49.0,-100.00,West,278,3.0,5.0,88,-99.99,,,-99.99,,2013-04-07 02:52:00,
2013-04-06 20:02:00,52.0,49.0,-100.00,West,265,2.0,4.0,89,-99.99,,,-99.99,,2013-04-07 03:02:00,
2013-04-06 20:12:00,51.0,48.0,-100.00,West,279,2.0,4.0,90,-99.99,,,-99.99,,2013-04-07 03:12:00,
2013-04-06 20:22:00,51.0,48.0,-100.00,West,279,2.0,4.0,90,-99.99,,,-99.99,,2013-04-07 03:22:00,
2013-04-06 20:30:00,51.0,48.0,-100.00,NW,319,2.0,3.0,91,-99.99,,,-99.99,,2013-04-07 03:30:00,
2013-04-06 20:33:00,51.0,48.0,-100.00,WNW,283,1.0,2.0,90,-99.99,,,-99.99,,2013-04-07 03:33:00,
2013-04-06 20:43:00,51.0,48.0,-100.00,WNW,283,1.0,2.0,90,-99.99,,,-99.99,,2013-04-07 03:43:00,
2013-04-06 20:53:00,51.0,48.0,-100.00,WNW,284,1.0,2.0,91,-99.99,,,-99.99,,2013-04-07 03:53:00,
2013-04-06 21:03:00,51.0,48.0,-100.00,NW,319,2.0,3.0,91,-99.99,,,-99.99,,2013-04-07 04:03:00,
2013-04-06 21:13:00,51.0,48.0,-100.00,NW,319,2.0,3.0,91,-99.99,,,-99.99,,2013-04-07 04:13:00,
2013-04-06 21:23:00,51.0,48.0,-100.00,NW,319,2.0,3.0,91,-99.99,,,-99.99,,2013-04-07 04:23:00,
2013-04-06 21:30:00,50.0,49.0,-100.00,North,354,2.0,3.0,95,-99.99,,,-99.99,,2013-04-07 04:30:00,
2013-04-06 22:02:00,49.0,48.0,-100.00,NW,313,3.0,4.0,95,-99.99,,,-99.99,,2013-04-07 05:02:00,
2013-04-06 22:12:00,50.0,49.0,-100.00,North,354,2.0,3.0,95,-99.99,,,-99.99,,2013-04-07 05:12:00,
2013-04-06 22:22:00,50.0,49.0,-100.00,North,354,2.0,3.0,95,-99.99,,,-99.99,,2013-04-07 05:22:00,